Terminal Aerodrome Forecast
Issued by NWS

Home | Current Version | Previous Version | Text Only | Print | Product List | Glossary On
Versions: 1 2 3 4 5 6 7 8 9 10 11 12 13 14 15 16 17 18 19 20 21 22
000
FTUS46 KMFR 300813 AAB
TAFOTH
TAF AMD
KOTH 300813Z 3008/3106 00000KT 5SM BR FEW002
     FM301100 08004KT 1/2SM FG OVC002
     FM301600 36004KT P6SM SCT002
     FM302100 35011KT P6SM SKC=

USA.gov is the U.S. government's official web portal to all federal, state and local government web resources and services.